sensor_id;sensor_type;location;lat;lon;timestamp;P1;durP1;ratioP1;P2;durP2;ratioP2
64643;SDS011;51056;50.330;7.914;2022-12-07T00:00:43;15.38;;;11.15;;
64643;SDS011;51056;50.330;7.914;2022-12-07T00:04:13;15.88;;;10.85;;
64643;SDS011;51056;50.330;7.914;2022-12-07T00:07:59;15.50;;;11.00;;
64643;SDS011;51056;50.330;7.914;2022-12-07T00:11:07;16.73;;;11.50;;
64643;SDS011;51056;50.330;7.914;2022-12-07T00:14:19;15.90;;;10.73;;
64643;SDS011;51056;50.330;7.914;2022-12-07T00:17:38;14.70;;;11.93;;
64643;SDS011;51056;50.330;7.914;2022-12-07T00:21:05;16.30;;;12.18;;
64643;SDS011;51056;50.330;7.914;2022-12-07T00:24:19;11.85;;;9.63;;
64643;SDS011;51056;50.330;7.914;2022-12-07T00:31:13;12.82;;;9.85;;
64643;SDS011;51056;50.330;7.914;2022-12-07T00:34:46;11.15;;;9.18;;
64643;SDS011;51056;50.330;7.914;2022-12-07T00:38:04;11.50;;;9.45;;
64643;SDS011;51056;50.330;7.914;2022-12-07T00:45:29;12.10;;;10.40;;
64643;SDS011;51056;50.330;7.914;2022-12-07T00:48:42;12.93;;;10.15;;
64643;SDS011;51056;50.330;7.914;2022-12-07T00:51:49;13.60;;;10.02;;
64643;SDS011;51056;50.330;7.914;2022-12-07T00:55:05;14.60;;;10.82;;
64643;SDS011;51056;50.330;7.914;2022-12-07T00:58:22;12.20;;;9.48;;
64643;SDS011;51056;50.330;7.914;2022-12-07T01:01:35;11.57;;;9.80;;
64643;SDS011;51056;50.330;7.914;2022-12-07T01:05:21;12.20;;;9.70;;
64643;SDS011;51056;50.330;7.914;2022-12-07T01:08:54;12.30;;;10.23;;
64643;SDS011;51056;50.330;7.914;2022-12-07T01:12:15;16.70;;;10.68;;
64643;SDS011;51056;50.330;7.914;2022-12-07T01:15:27;12.70;;;11.13;;
64643;SDS011;51056;50.330;7.914;2022-12-07T01:19:08;16.98;;;10.77;;
64643;SDS011;51056;50.330;7.914;2022-12-07T01:22:31;13.82;;;10.38;;
64643;SDS011;51056;50.330;7.914;2022-12-07T01:25:39;11.13;;;9.45;;
64643;SDS011;51056;50.330;7.914;2022-12-07T01:29:13;13.00;;;8.20;;
64643;SDS011;51056;50.330;7.914;2022-12-07T01:33:07;13.90;;;8.43;;
64643;SDS011;51056;50.330;7.914;2022-12-07T01:36:26;8.25;;;7.30;;
64643;SDS011;51056;50.330;7.914;2022-12-07T01:39:50;11.07;;;8.38;;
64643;SDS011;51056;50.330;7.914;2022-12-07T01:42:59;10.48;;;7.80;;
64643;SDS011;51056;50.330;7.914;2022-12-07T01:46:35;10.18;;;7.68;;
64643;SDS011;51056;50.330;7.914;2022-12-07T01:50:05;12.50;;;8.43;;
64643;SDS011;51056;50.330;7.914;2022-12-07T01:57:14;11.30;;;7.53;;
64643;SDS011;51056;50.330;7.914;2022-12-07T02:00:31;11.55;;;8.18;;
64643;SDS011;51056;50.330;7.914;2022-12-07T02:07:31;12.10;;;7.72;;
64643;SDS011;51056;50.330;7.914;2022-12-07T02:10:51;10.98;;;8.48;;
64643;SDS011;51056;50.330;7.914;2022-12-07T02:14:01;9.32;;;8.02;;
64643;SDS011;51056;50.330;7.914;2022-12-07T02:17:25;10.75;;;8.70;;
64643;SDS011;51056;50.330;7.914;2022-12-07T02:29:24;10.65;;;8.45;;
64643;SDS011;51056;50.330;7.914;2022-12-07T02:36:21;11.38;;;8.55;;
64643;SDS011;51056;50.330;7.914;2022-12-07T02:39:51;11.25;;;8.10;;
64643;SDS011;51056;50.330;7.914;2022-12-07T02:43:25;11.20;;;8.65;;
64643;SDS011;51056;50.330;7.914;2022-12-07T02:46:59;12.23;;;8.90;;
64643;SDS011;51056;50.330;7.914;2022-12-07T02:50:36;11.45;;;9.98;;
64643;SDS011;51056;50.330;7.914;2022-12-07T02:54:12;10.40;;;8.88;;
64643;SDS011;51056;50.330;7.914;2022-12-07T03:01:55;12.60;;;9.18;;
64643;SDS011;51056;50.330;7.914;2022-12-07T03:05:47;13.65;;;9.15;;
64643;SDS011;51056;50.330;7.914;2022-12-07T03:09:16;12.05;;;8.25;;
64643;SDS011;51056;50.330;7.914;2022-12-07T03:12:48;13.00;;;9.82;;
64643;SDS011;51056;50.330;7.914;2022-12-07T03:16:30;13.02;;;8.25;;
64643;SDS011;51056;50.330;7.914;2022-12-07T03:20:10;10.60;;;8.38;;
64643;SDS011;51056;50.330;7.914;2022-12-07T03:27:21;10.93;;;8.20;;
64643;SDS011;51056;50.330;7.914;2022-12-07T03:41:35;10.70;;;9.00;;
64643;SDS011;51056;50.330;7.914;2022-12-07T03:44:57;11.38;;;9.02;;
64643;SDS011;51056;50.330;7.914;2022-12-07T03:48:24;11.02;;;9.02;;
64643;SDS011;51056;50.330;7.914;2022-12-07T03:51:49;13.02;;;10.20;;
64643;SDS011;51056;50.330;7.914;2022-12-07T03:55:08;14.02;;;9.98;;
64643;SDS011;51056;50.330;7.914;2022-12-07T03:58:30;14.07;;;11.00;;
64643;SDS011;51056;50.330;7.914;2022-12-07T04:02:10;10.85;;;8.52;;
64643;SDS011;51056;50.330;7.914;2022-12-07T04:05:25;12.05;;;8.45;;
64643;SDS011;51056;50.330;7.914;2022-12-07T04:08:42;11.48;;;9.23;;
64643;SDS011;51056;50.330;7.914;2022-12-07T04:11:59;15.25;;;10.35;;
64643;SDS011;51056;50.330;7.914;2022-12-07T04:15:18;11.60;;;9.65;;
64643;SDS011;51056;50.330;7.914;2022-12-07T04:18:37;12.90;;;9.05;;
64643;SDS011;51056;50.330;7.914;2022-12-07T04:21:50;14.38;;;9.27;;
64643;SDS011;51056;50.330;7.914;2022-12-07T04:25:10;13.95;;;9.15;;
64643;SDS011;51056;50.330;7.914;2022-12-07T04:28:26;10.63;;;8.20;;
64643;SDS011;51056;50.330;7.914;2022-12-07T04:31:40;11.77;;;9.48;;
64643;SDS011;51056;50.330;7.914;2022-12-07T04:39:37;11.73;;;8.85;;
64643;SDS011;51056;50.330;7.914;2022-12-07T04:42:46;13.27;;;9.38;;
64643;SDS011;51056;50.330;7.914;2022-12-07T04:46:13;14.85;;;9.45;;
64643;SDS011;51056;50.330;7.914;2022-12-07T04:49:52;16.00;;;11.18;;
64643;SDS011;51056;50.330;7.914;2022-12-07T04:53:04;18.05;;;9.40;;
64643;SDS011;51056;50.330;7.914;2022-12-07T04:56:23;14.25;;;11.70;;
64643;SDS011;51056;50.330;7.914;2022-12-07T04:59:31;12.65;;;9.98;;
64643;SDS011;51056;50.330;7.914;2022-12-07T05:02:38;13.60;;;10.75;;
64643;SDS011;51056;50.330;7.914;2022-12-07T05:05:44;16.60;;;11.23;;
64643;SDS011;51056;50.330;7.914;2022-12-07T05:09:03;14.70;;;10.82;;
64643;SDS011;51056;50.330;7.914;2022-12-07T05:12:17;12.98;;;10.75;;
64643;SDS011;51056;50.330;7.914;2022-12-07T05:15:32;13.63;;;11.18;;
64643;SDS011;51056;50.330;7.914;2022-12-07T05:22:43;14.23;;;10.32;;
64643;SDS011;51056;50.330;7.914;2022-12-07T05:25:49;12.52;;;10.00;;
64643;SDS011;51056;50.330;7.914;2022-12-07T05:29:02;12.20;;;9.90;;
64643;SDS011;51056;50.330;7.914;2022-12-07T05:32:09;13.68;;;9.57;;
64643;SDS011;51056;50.330;7.914;2022-12-07T05:35:13;11.07;;;8.48;;
64643;SDS011;51056;50.330;7.914;2022-12-07T05:38:29;13.90;;;9.52;;
64643;SDS011;51056;50.330;7.914;2022-12-07T05:41:33;11.15;;;9.55;;
64643;SDS011;51056;50.330;7.914;2022-12-07T05:45:00;12.00;;;9.57;;
64643;SDS011;51056;50.330;7.914;2022-12-07T05:48:09;10.95;;;8.55;;
64643;SDS011;51056;50.330;7.914;2022-12-07T05:51:14;14.32;;;9.23;;
64643;SDS011;51056;50.330;7.914;2022-12-07T05:54:17;10.63;;;8.27;;
64643;SDS011;51056;50.330;7.914;2022-12-07T05:57:21;13.18;;;9.77;;
64643;SDS011;51056;50.330;7.914;2022-12-07T06:00:37;10.52;;;9.15;;
64643;SDS011;51056;50.330;7.914;2022-12-07T06:03:51;12.45;;;10.05;;
64643;SDS011;51056;50.330;7.914;2022-12-07T06:07:03;10.65;;;8.63;;
64643;SDS011;51056;50.330;7.914;2022-12-07T06:10:09;12.68;;;9.45;;
64643;SDS011;51056;50.330;7.914;2022-12-07T06:13:18;14.60;;;9.98;;
64643;SDS011;51056;50.330;7.914;2022-12-07T06:16:26;14.18;;;10.32;;
64643;SDS011;51056;50.330;7.914;2022-12-07T06:19:39;12.13;;;8.85;;
64643;SDS011;51056;50.330;7.914;2022-12-07T06:22:55;15.75;;;10.32;;
64643;SDS011;51056;50.330;7.914;2022-12-07T06:26:13;11.88;;;9.13;;
64643;SDS011;51056;50.330;7.914;2022-12-07T06:29:20;13.48;;;9.38;;
64643;SDS011;51056;50.330;7.914;2022-12-07T06:32:35;11.93;;;8.98;;
64643;SDS011;51056;50.330;7.914;2022-12-07T06:35:47;11.48;;;8.38;;
64643;SDS011;51056;50.330;7.914;2022-12-07T06:38:59;13.02;;;8.00;;
64643;SDS011;51056;50.330;7.914;2022-12-07T06:42:16;12.85;;;9.00;;
64643;SDS011;51056;50.330;7.914;2022-12-07T06:45:39;13.32;;;8.35;;
64643;SDS011;51056;50.330;7.914;2022-12-07T06:48:52;9.30;;;7.70;;
64643;SDS011;51056;50.330;7.914;2022-12-07T06:52:26;12.25;;;8.20;;
64643;SDS011;51056;50.330;7.914;2022-12-07T06:56:01;10.80;;;8.38;;
64643;SDS011;51056;50.330;7.914;2022-12-07T06:59:07;11.98;;;8.98;;
64643;SDS011;51056;50.330;7.914;2022-12-07T07:02:34;13.23;;;8.82;;
64643;SDS011;51056;50.330;7.914;2022-12-07T07:05:43;13.48;;;9.70;;
64643;SDS011;51056;50.330;7.914;2022-12-07T07:08:50;12.20;;;8.88;;
64643;SDS011;51056;50.330;7.914;2022-12-07T07:12:09;14.50;;;7.90;;
64643;SDS011;51056;50.330;7.914;2022-12-07T07:15:26;10.82;;;8.68;;
64643;SDS011;51056;50.330;7.914;2022-12-07T07:18:43;10.77;;;8.45;;
64643;SDS011;51056;50.330;7.914;2022-12-07T07:21:50;10.35;;;8.57;;
64643;SDS011;51056;50.330;7.914;2022-12-07T07:24:53;9.50;;;7.65;;
64643;SDS011;51056;50.330;7.914;2022-12-07T07:27:57;10.02;;;7.68;;
64643;SDS011;51056;50.330;7.914;2022-12-07T07:31:07;9.10;;;7.47;;
64643;SDS011;51056;50.330;7.914;2022-12-07T07:34:19;10.95;;;7.05;;
64643;SDS011;51056;50.330;7.914;2022-12-07T07:37:25;17.35;;;11.80;;
64643;SDS011;51056;50.330;7.914;2022-12-07T07:40:32;12.95;;;9.95;;
64643;SDS011;51056;50.330;7.914;2022-12-07T07:43:38;13.32;;;10.50;;
64643;SDS011;51056;50.330;7.914;2022-12-07T07:46:42;23.63;;;11.10;;
64643;SDS011;51056;50.330;7.914;2022-12-07T07:49:51;11.55;;;7.80;;
64643;SDS011;51056;50.330;7.914;2022-12-07T07:53:15;10.02;;;7.70;;
64643;SDS011;51056;50.330;7.914;2022-12-07T07:56:19;10.73;;;7.47;;
64643;SDS011;51056;50.330;7.914;2022-12-07T07:59:26;14.68;;;10.30;;
64643;SDS011;51056;50.330;7.914;2022-12-07T08:02:50;15.50;;;11.48;;
64643;SDS011;51056;50.330;7.914;2022-12-07T08:05:56;13.68;;;9.80;;
64643;SDS011;51056;50.330;7.914;2022-12-07T08:09:08;14.73;;;10.82;;
64643;SDS011;51056;50.330;7.914;2022-12-07T08:12:14;11.70;;;8.48;;
64643;SDS011;51056;50.330;7.914;2022-12-07T08:15:28;13.80;;;8.93;;
64643;SDS011;51056;50.330;7.914;2022-12-07T08:18:40;11.75;;;8.65;;
64643;SDS011;51056;50.330;7.914;2022-12-07T08:21:58;14.52;;;8.55;;
64643;SDS011;51056;50.330;7.914;2022-12-07T08:25:17;13.68;;;10.43;;
64643;SDS011;51056;50.330;7.914;2022-12-07T08:28:23;14.48;;;9.80;;
64643;SDS011;51056;50.330;7.914;2022-12-07T08:31:28;13.88;;;10.05;;
64643;SDS011;51056;50.330;7.914;2022-12-07T08:34:35;14.43;;;9.07;;
64643;SDS011;51056;50.330;7.914;2022-12-07T08:37:44;13.75;;;9.30;;
64643;SDS011;51056;50.330;7.914;2022-12-07T08:40:56;16.15;;;11.15;;
64643;SDS011;51056;50.330;7.914;2022-12-07T08:44:13;17.20;;;13.02;;
64643;SDS011;51056;50.330;7.914;2022-12-07T08:47:51;17.75;;;14.73;;
64643;SDS011;51056;50.330;7.914;2022-12-07T08:51:01;18.55;;;15.70;;
64643;SDS011;51056;50.330;7.914;2022-12-07T08:54:07;20.15;;;16.17;;
64643;SDS011;51056;50.330;7.914;2022-12-07T08:57:13;22.65;;;16.52;;
64643;SDS011;51056;50.330;7.914;2022-12-07T09:00:19;19.52;;;13.27;;
64643;SDS011;51056;50.330;7.914;2022-12-07T09:03:34;12.68;;;9.93;;
64643;SDS011;51056;50.330;7.914;2022-12-07T09:06:53;12.75;;;9.82;;
64643;SDS011;51056;50.330;7.914;2022-12-07T09:13:56;13.35;;;9.68;;
64643;SDS011;51056;50.330;7.914;2022-12-07T09:17:25;11.13;;;8.65;;
64643;SDS011;51056;50.330;7.914;2022-12-07T09:20:40;11.68;;;8.38;;
64643;SDS011;51056;50.330;7.914;2022-12-07T09:23:54;10.48;;;6.75;;
64643;SDS011;51056;50.330;7.914;2022-12-07T09:27:07;15.38;;;9.60;;
64643;SDS011;51056;50.330;7.914;2022-12-07T09:30:14;14.85;;;10.05;;
64643;SDS011;51056;50.330;7.914;2022-12-07T09:33:56;16.35;;;10.02;;
64643;SDS011;51056;50.330;7.914;2022-12-07T09:37:13;11.77;;;8.93;;
64643;SDS011;51056;50.330;7.914;2022-12-07T09:40:24;13.18;;;7.85;;
64643;SDS011;51056;50.330;7.914;2022-12-07T09:43:42;10.20;;;6.15;;
64643;SDS011;51056;50.330;7.914;2022-12-07T09:46:50;10.95;;;7.05;;
64643;SDS011;51056;50.330;7.914;2022-12-07T09:50:23;9.68;;;7.35;;
64643;SDS011;51056;50.330;7.914;2022-12-07T09:53:37;10.57;;;6.13;;
64643;SDS011;51056;50.330;7.914;2022-12-07T09:56:51;8.80;;;6.10;;
64643;SDS011;51056;50.330;7.914;2022-12-07T10:00:03;11.70;;;6.65;;
64643;SDS011;51056;50.330;7.914;2022-12-07T10:03:14;10.80;;;5.35;;
64643;SDS011;51056;50.330;7.914;2022-12-07T10:06:32;9.77;;;5.72;;
64643;SDS011;51056;50.330;7.914;2022-12-07T10:09:39;8.30;;;4.90;;
64643;SDS011;51056;50.330;7.914;2022-12-07T10:13:07;9.23;;;6.07;;
64643;SDS011;51056;50.330;7.914;2022-12-07T10:19:30;9.85;;;6.40;;
64643;SDS011;51056;50.330;7.914;2022-12-07T10:22:55;11.45;;;6.93;;
64643;SDS011;51056;50.330;7.914;2022-12-07T10:26:29;17.70;;;9.30;;
64643;SDS011;51056;50.330;7.914;2022-12-07T10:29:39;10.32;;;6.75;;
64643;SDS011;51056;50.330;7.914;2022-12-07T10:32:43;11.02;;;5.35;;
64643;SDS011;51056;50.330;7.914;2022-12-07T10:35:47;12.23;;;5.55;;
64643;SDS011;51056;50.330;7.914;2022-12-07T10:39:13;7.63;;;4.95;;
64643;SDS011;51056;50.330;7.914;2022-12-07T10:42:25;7.57;;;5.15;;
64643;SDS011;51056;50.330;7.914;2022-12-07T10:48:59;8.52;;;4.38;;
64643;SDS011;51056;50.330;7.914;2022-12-07T11:12:09;13.55;;;7.80;;
64643;SDS011;51056;50.330;7.914;2022-12-07T11:36:04;13.35;;;6.45;;
64643;SDS011;51056;50.330;7.914;2022-12-07T11:39:35;10.30;;;5.47;;
64643;SDS011;51056;50.330;7.914;2022-12-07T11:42:44;7.97;;;3.90;;
64643;SDS011;51056;50.330;7.914;2022-12-07T11:46:03;7.55;;;4.50;;
64643;SDS011;51056;50.330;7.914;2022-12-07T11:57:24;9.45;;;6.78;;
64643;SDS011;51056;50.330;7.914;2022-12-07T12:00:48;9.82;;;5.47;;
64643;SDS011;51056;50.330;7.914;2022-12-07T12:07:31;14.07;;;6.97;;
64643;SDS011;51056;50.330;7.914;2022-12-07T12:10:45;7.25;;;3.85;;
64643;SDS011;51056;50.330;7.914;2022-12-07T12:20:45;7.55;;;3.53;;
64643;SDS011;51056;50.330;7.914;2022-12-07T12:24:12;8.40;;;3.40;;
64643;SDS011;51056;50.330;7.914;2022-12-07T12:27:23;11.25;;;5.15;;
64643;SDS011;51056;50.330;7.914;2022-12-07T12:30:37;7.95;;;2.80;;
64643;SDS011;51056;50.330;7.914;2022-12-07T12:33:48;5.55;;;2.50;;
64643;SDS011;51056;50.330;7.914;2022-12-07T12:36:54;6.03;;;2.17;;
64643;SDS011;51056;50.330;7.914;2022-12-07T12:53:40;11.48;;;6.25;;
64643;SDS011;51056;50.330;7.914;2022-12-07T12:56:50;10.60;;;5.20;;
64643;SDS011;51056;50.330;7.914;2022-12-07T13:00:18;13.48;;;4.50;;
64643;SDS011;51056;50.330;7.914;2022-12-07T13:03:32;7.32;;;3.40;;
64643;SDS011;51056;50.330;7.914;2022-12-07T13:06:37;8.27;;;3.25;;
64643;SDS011;51056;50.330;7.914;2022-12-07T13:13:34;10.45;;;2.60;;
64643;SDS011;51056;50.330;7.914;2022-12-07T13:20:07;8.82;;;3.55;;
64643;SDS011;51056;50.330;7.914;2022-12-07T13:23:13;10.95;;;3.00;;
64643;SDS011;51056;50.330;7.914;2022-12-07T13:26:23;8.90;;;3.80;;
64643;SDS011;51056;50.330;7.914;2022-12-07T13:29:36;6.82;;;2.10;;
64643;SDS011;51056;50.330;7.914;2022-12-07T13:32:41;4.88;;;1.70;;
64643;SDS011;51056;50.330;7.914;2022-12-07T13:35:54;5.70;;;1.67;;
64643;SDS011;51056;50.330;7.914;2022-12-07T13:42:27;6.28;;;2.15;;
64643;SDS011;51056;50.330;7.914;2022-12-07T13:45:33;8.30;;;2.75;;
64643;SDS011;51056;50.330;7.914;2022-12-07T13:49:02;7.22;;;2.47;;
64643;SDS011;51056;50.330;7.914;2022-12-07T13:52:22;7.88;;;3.08;;
64643;SDS011;51056;50.330;7.914;2022-12-07T13:55:31;9.55;;;4.30;;
64643;SDS011;51056;50.330;7.914;2022-12-07T13:58:35;11.02;;;2.60;;
64643;SDS011;51056;50.330;7.914;2022-12-07T14:01:49;5.28;;;2.78;;
64643;SDS011;51056;50.330;7.914;2022-12-07T14:05:16;5.72;;;1.88;;
64643;SDS011;51056;50.330;7.914;2022-12-07T14:08:25;7.43;;;2.13;;
64643;SDS011;51056;50.330;7.914;2022-12-07T14:11:40;8.32;;;3.70;;
64643;SDS011;51056;50.330;7.914;2022-12-07T14:14:46;5.13;;;1.95;;
64643;SDS011;51056;50.330;7.914;2022-12-07T14:17:52;8.25;;;2.33;;
64643;SDS011;51056;50.330;7.914;2022-12-07T14:24:30;6.90;;;2.15;;
64643;SDS011;51056;50.330;7.914;2022-12-07T14:27:53;10.20;;;2.55;;
64643;SDS011;51056;50.330;7.914;2022-12-07T14:31:00;5.50;;;2.00;;
64643;SDS011;51056;50.330;7.914;2022-12-07T14:34:11;5.72;;;1.88;;
64643;SDS011;51056;50.330;7.914;2022-12-07T14:37:20;7.47;;;3.25;;
64643;SDS011;51056;50.330;7.914;2022-12-07T14:40:28;5.53;;;2.40;;
64643;SDS011;51056;50.330;7.914;2022-12-07T14:43:39;5.20;;;2.20;;
64643;SDS011;51056;50.330;7.914;2022-12-07T14:46:45;11.27;;;3.80;;
64643;SDS011;51056;50.330;7.914;2022-12-07T14:49:52;5.18;;;1.70;;
64643;SDS011;51056;50.330;7.914;2022-12-07T14:52:59;5.70;;;2.08;;
64643;SDS011;51056;50.330;7.914;2022-12-07T14:56:06;9.45;;;2.10;;
64643;SDS011;51056;50.330;7.914;2022-12-07T14:59:36;7.78;;;2.10;;
64643;SDS011;51056;50.330;7.914;2022-12-07T15:02:49;5.57;;;1.98;;
64643;SDS011;51056;50.330;7.914;2022-12-07T15:05:57;5.55;;;2.20;;
64643;SDS011;51056;50.330;7.914;2022-12-07T15:09:01;9.40;;;2.28;;
64643;SDS011;51056;50.330;7.914;2022-12-07T15:12:05;11.52;;;2.85;;
64643;SDS011;51056;50.330;7.914;2022-12-07T15:18:18;8.70;;;2.25;;
64643;SDS011;51056;50.330;7.914;2022-12-07T15:21:30;7.05;;;2.13;;
64643;SDS011;51056;50.330;7.914;2022-12-07T15:24:51;5.35;;;1.80;;
64643;SDS011;51056;50.330;7.914;2022-12-07T15:27:56;7.13;;;2.20;;
64643;SDS011;51056;50.330;7.914;2022-12-07T15:31:00;6.68;;;2.55;;
64643;SDS011;51056;50.330;7.914;2022-12-07T15:34:08;49.75;;;26.38;;
64643;SDS011;51056;50.330;7.914;2022-12-07T15:37:20;19.45;;;10.50;;
64643;SDS011;51056;50.330;7.914;2022-12-07T15:40:26;12.65;;;7.53;;
64643;SDS011;51056;50.330;7.914;2022-12-07T15:43:30;13.30;;;6.43;;
64643;SDS011;51056;50.330;7.914;2022-12-07T15:46:52;7.93;;;3.38;;
64643;SDS011;51056;50.330;7.914;2022-12-07T15:49:56;5.45;;;2.55;;
64643;SDS011;51056;50.330;7.914;2022-12-07T15:53:00;7.07;;;2.33;;
64643;SDS011;51056;50.330;7.914;2022-12-07T15:56:09;5.00;;;2.50;;
64643;SDS011;51056;50.330;7.914;2022-12-07T15:59:22;6.55;;;1.50;;
64643;SDS011;51056;50.330;7.914;2022-12-07T16:02:34;6.80;;;2.45;;
64643;SDS011;51056;50.330;7.914;2022-12-07T16:09:39;9.52;;;1.15;;
64643;SDS011;51056;50.330;7.914;2022-12-07T16:12:42;10.73;;;1.55;;
64643;SDS011;51056;50.330;7.914;2022-12-07T16:15:48;7.75;;;1.10;;
64643;SDS011;51056;50.330;7.914;2022-12-07T16:18:52;8.00;;;1.20;;
64643;SDS011;51056;50.330;7.914;2022-12-07T16:25:26;4.95;;;1.05;;
64643;SDS011;51056;50.330;7.914;2022-12-07T16:28:31;6.95;;;2.72;;
64643;SDS011;51056;50.330;7.914;2022-12-07T16:31:36;7.82;;;2.40;;
64643;SDS011;51056;50.330;7.914;2022-12-07T16:34:40;6.72;;;2.22;;
64643;SDS011;51056;50.330;7.914;2022-12-07T16:37:47;7.13;;;1.33;;
64643;SDS011;51056;50.330;7.914;2022-12-07T16:40:51;6.80;;;2.13;;
64643;SDS011;51056;50.330;7.914;2022-12-07T16:47:00;7.00;;;2.80;;
64643;SDS011;51056;50.330;7.914;2022-12-07T16:50:06;10.85;;;5.53;;
64643;SDS011;51056;50.330;7.914;2022-12-07T16:53:11;15.63;;;7.63;;
64643;SDS011;51056;50.330;7.914;2022-12-07T16:56:16;10.55;;;4.25;;
64643;SDS011;51056;50.330;7.914;2022-12-07T16:59:25;9.18;;;3.40;;
64643;SDS011;51056;50.330;7.914;2022-12-07T17:02:31;7.25;;;2.65;;
64643;SDS011;51056;50.330;7.914;2022-12-07T17:05:41;5.43;;;1.20;;
64643;SDS011;51056;50.330;7.914;2022-12-07T17:11:56;7.05;;;2.45;;
64643;SDS011;51056;50.330;7.914;2022-12-07T17:15:00;6.55;;;1.50;;
64643;SDS011;51056;50.330;7.914;2022-12-07T17:21:56;5.55;;;1.90;;
64643;SDS011;51056;50.330;7.914;2022-12-07T17:25:06;6.55;;;3.03;;
64643;SDS011;51056;50.330;7.914;2022-12-07T17:28:10;13.30;;;3.20;;
64643;SDS011;51056;50.330;7.914;2022-12-07T17:31:18;5.13;;;2.20;;
64643;SDS011;51056;50.330;7.914;2022-12-07T17:34:23;14.05;;;3.55;;
64643;SDS011;51056;50.330;7.914;2022-12-07T17:40:34;5.03;;;2.05;;
64643;SDS011;51056;50.330;7.914;2022-12-07T17:43:38;10.52;;;2.25;;
64643;SDS011;51056;50.330;7.914;2022-12-07T17:46:42;7.30;;;3.67;;
64643;SDS011;51056;50.330;7.914;2022-12-07T17:50:00;6.88;;;2.70;;
64643;SDS011;51056;50.330;7.914;2022-12-07T17:53:11;8.85;;;4.10;;
64643;SDS011;51056;50.330;7.914;2022-12-07T17:56:16;9.60;;;4.47;;
64643;SDS011;51056;50.330;7.914;2022-12-07T17:59:20;12.18;;;5.82;;
64643;SDS011;51056;50.330;7.914;2022-12-07T18:02:24;11.48;;;6.10;;
64643;SDS011;51056;50.330;7.914;2022-12-07T18:05:28;18.55;;;11.77;;
64643;SDS011;51056;50.330;7.914;2022-12-07T18:08:34;26.05;;;15.75;;
64643;SDS011;51056;50.330;7.914;2022-12-07T18:11:51;16.90;;;12.02;;
64643;SDS011;51056;50.330;7.914;2022-12-07T18:15:55;11.13;;;5.85;;
64643;SDS011;51056;50.330;7.914;2022-12-07T18:19:57;12.30;;;6.38;;
64643;SDS011;51056;50.330;7.914;2022-12-07T18:29:08;15.05;;;5.10;;
64643;SDS011;51056;50.330;7.914;2022-12-07T18:32:58;15.88;;;5.03;;
64643;SDS011;51056;50.330;7.914;2022-12-07T18:37:00;13.88;;;8.50;;
64643;SDS011;51056;50.330;7.914;2022-12-07T18:42:02;11.75;;;5.03;;
64643;SDS011;51056;50.330;7.914;2022-12-07T18:45:42;7.75;;;4.40;;
64643;SDS011;51056;50.330;7.914;2022-12-07T18:48:59;5.03;;;3.20;;
64643;SDS011;51056;50.330;7.914;2022-12-07T18:57:06;7.50;;;3.58;;
64643;SDS011;51056;50.330;7.914;2022-12-07T19:00:30;13.00;;;4.95;;
64643;SDS011;51056;50.330;7.914;2022-12-07T19:08:40;8.13;;;4.93;;
64643;SDS011;51056;50.330;7.914;2022-12-07T19:16:29;6.40;;;3.58;;
64643;SDS011;51056;50.330;7.914;2022-12-07T19:20:38;12.85;;;7.60;;
64643;SDS011;51056;50.330;7.914;2022-12-07T19:24:26;11.02;;;4.22;;
64643;SDS011;51056;50.330;7.914;2022-12-07T19:29:04;7.85;;;3.67;;
64643;SDS011;51056;50.330;7.914;2022-12-07T19:33:11;8.55;;;3.65;;
64643;SDS011;51056;50.330;7.914;2022-12-07T19:37:09;6.28;;;3.17;;
64643;SDS011;51056;50.330;7.914;2022-12-07T19:45:23;5.50;;;2.55;;
64643;SDS011;51056;50.330;7.914;2022-12-07T19:48:47;5.72;;;3.08;;
64643;SDS011;51056;50.330;7.914;2022-12-07T19:51:58;7.28;;;3.70;;
64643;SDS011;51056;50.330;7.914;2022-12-07T19:55:09;7.40;;;2.92;;
64643;SDS011;51056;50.330;7.914;2022-12-07T19:58:14;9.40;;;4.10;;
64643;SDS011;51056;50.330;7.914;2022-12-07T20:01:18;6.93;;;3.25;;
64643;SDS011;51056;50.330;7.914;2022-12-07T20:04:25;6.90;;;3.72;;
64643;SDS011;51056;50.330;7.914;2022-12-07T20:07:34;8.50;;;3.85;;
64643;SDS011;51056;50.330;7.914;2022-12-07T20:10:43;8.48;;;3.45;;
64643;SDS011;51056;50.330;7.914;2022-12-07T20:13:49;11.88;;;3.90;;
64643;SDS011;51056;50.330;7.914;2022-12-07T20:16:53;9.32;;;3.88;;
64643;SDS011;51056;50.330;7.914;2022-12-07T20:20:00;7.80;;;3.10;;
64643;SDS011;51056;50.330;7.914;2022-12-07T20:23:10;8.13;;;3.35;;
64643;SDS011;51056;50.330;7.914;2022-12-07T20:26:15;9.77;;;4.57;;
64643;SDS011;51056;50.330;7.914;2022-12-07T20:29:20;13.15;;;4.53;;
64643;SDS011;51056;50.330;7.914;2022-12-07T20:32:26;6.28;;;4.18;;
64643;SDS011;51056;50.330;7.914;2022-12-07T20:35:36;11.05;;;4.63;;
64643;SDS011;51056;50.330;7.914;2022-12-07T20:41:43;9.63;;;4.43;;
64643;SDS011;51056;50.330;7.914;2022-12-07T20:45:05;11.18;;;4.63;;
64643;SDS011;51056;50.330;7.914;2022-12-07T20:48:10;5.78;;;3.58;;
64643;SDS011;51056;50.330;7.914;2022-12-07T20:51:14;6.70;;;3.80;;
64643;SDS011;51056;50.330;7.914;2022-12-07T20:54:17;8.27;;;3.75;;
64643;SDS011;51056;50.330;7.914;2022-12-07T20:57:21;6.40;;;4.05;;
64643;SDS011;51056;50.330;7.914;2022-12-07T21:00:25;10.23;;;8.10;;
64643;SDS011;51056;50.330;7.914;2022-12-07T21:03:32;15.10;;;8.88;;
64643;SDS011;51056;50.330;7.914;2022-12-07T21:06:36;13.02;;;6.03;;
64643;SDS011;51056;50.330;7.914;2022-12-07T21:09:40;11.52;;;8.20;;
64643;SDS011;51056;50.330;7.914;2022-12-07T21:12:46;11.82;;;8.85;;
64643;SDS011;51056;50.330;7.914;2022-12-07T21:15:50;11.40;;;7.00;;
64643;SDS011;51056;50.330;7.914;2022-12-07T21:19:02;12.00;;;7.20;;
64643;SDS011;51056;50.330;7.914;2022-12-07T21:30:57;8.32;;;5.40;;
64643;SDS011;51056;50.330;7.914;2022-12-07T21:34:04;9.38;;;4.78;;
64643;SDS011;51056;50.330;7.914;2022-12-07T21:37:07;9.52;;;4.20;;
64643;SDS011;51056;50.330;7.914;2022-12-07T21:40:11;9.50;;;4.80;;
64643;SDS011;51056;50.330;7.914;2022-12-07T21:43:17;7.22;;;4.68;;
64643;SDS011;51056;50.330;7.914;2022-12-07T21:49:26;9.52;;;5.60;;
64643;SDS011;51056;50.330;7.914;2022-12-07T21:52:30;12.40;;;7.28;;
64643;SDS011;51056;50.330;7.914;2022-12-07T21:55:38;8.55;;;5.35;;
64643;SDS011;51056;50.330;7.914;2022-12-07T21:58:43;11.73;;;4.85;;
64643;SDS011;51056;50.330;7.914;2022-12-07T22:01:47;11.68;;;4.60;;
64643;SDS011;51056;50.330;7.914;2022-12-07T22:04:52;9.25;;;4.97;;
64643;SDS011;51056;50.330;7.914;2022-12-07T22:07:55;8.15;;;4.53;;
64643;SDS011;51056;50.330;7.914;2022-12-07T22:11:02;10.57;;;4.95;;
64643;SDS011;51056;50.330;7.914;2022-12-07T22:14:05;11.35;;;5.97;;
64643;SDS011;51056;50.330;7.914;2022-12-07T22:17:28;12.05;;;7.95;;
64643;SDS011;51056;50.330;7.914;2022-12-07T22:20:31;17.88;;;10.20;;
64643;SDS011;51056;50.330;7.914;2022-12-07T22:23:36;24.70;;;15.32;;
64643;SDS011;51056;50.330;7.914;2022-12-07T22:26:40;25.10;;;10.10;;
64643;SDS011;51056;50.330;7.914;2022-12-07T22:29:51;13.90;;;7.75;;
64643;SDS011;51056;50.330;7.914;2022-12-07T22:35:58;10.68;;;5.25;;
64643;SDS011;51056;50.330;7.914;2022-12-07T22:39:03;10.07;;;5.78;;
64643;SDS011;51056;50.330;7.914;2022-12-07T22:42:08;10.45;;;6.07;;
64643;SDS011;51056;50.330;7.914;2022-12-07T22:48:17;12.43;;;6.22;;
64643;SDS011;51056;50.330;7.914;2022-12-07T22:51:36;17.33;;;8.77;;
64643;SDS011;51056;50.330;7.914;2022-12-07T22:54:40;13.50;;;7.00;;
64643;SDS011;51056;50.330;7.914;2022-12-07T22:57:45;12.68;;;6.68;;
64643;SDS011;51056;50.330;7.914;2022-12-07T23:00:51;14.13;;;7.18;;
64643;SDS011;51056;50.330;7.914;2022-12-07T23:03:55;18.40;;;7.75;;